Time;durP1;ratioP1;P1;durP2;ratioP2;P2;SDS_P1;SDS_P2;PMS_P1;PMS_P2;Temp;Humidity;BMP_temperature;BMP_pressure;BME280_temperature;BME280_humidity;BME280_pressure;Samples;Min_cycle;Max_cycle;Signal;HPM_P1;HPM_P2
2023/08/18 00:02:15;;;;;;;11.70;7.90;;;;;;;21.71;100.00;101263.19;108357;1253;58979;-75
2023/08/18 00:04:45;;;;;;;10.80;8.70;;;;;;;21.66;100.00;101265.59;109052;1241;72683;-75
2023/08/18 00:07:15;;;;;;;11.30;8.00;;;;;;;21.63;100.00;101267.20;108646;1241;71941;-77
2023/08/18 00:09:43;;;;;;;12.40;7.90;;;;;;;21.58;100.00;101263.33;108625;1241;71321;-75
2023/08/18 00:12:12;;;;;;;9.40;7.60;;;;;;;21.50;100.00;101264.53;108856;1242;73366;-77
2023/08/18 00:14:41;;;;;;;10.90;7.70;;;;;;;21.44;100.00;101261.71;108778;1241;58931;-75
2023/08/18 00:17:10;;;;;;;8.60;7.20;;;;;;;21.28;100.00;101258.15;108498;1244;60282;-75
2023/08/18 00:19:38;;;;;;;10.70;7.80;;;;;;;21.19;100.00;101260.48;107714;1245;74318;-77
2023/08/18 00:22:07;;;;;;;10.30;7.50;;;;;;;21.22;100.00;101265.29;107706;1246;62050;-76
2023/08/18 00:24:36;;;;;;;11.00;7.60;;;;;;;21.26;100.00;101266.31;107508;1246;59773;-76
2023/08/18 00:27:05;;;;;;;11.30;7.70;;;;;;;21.27;100.00;101269.92;107491;1252;62281;-77
2023/08/18 00:29:34;;;;;;;10.10;7.20;;;;;;;21.22;100.00;101266.39;107485;1245;58459;-76
2023/08/18 00:32:03;;;;;;;10.60;7.20;;;;;;;21.11;100.00;101265.95;107610;1246;60298;-76
2023/08/18 00:34:32;;;;;;;12.30;7.60;;;;;;;21.02;100.00;101263.77;107477;1241;73386;-76
2023/08/18 00:37:00;;;;;;;10.20;7.70;;;;;;;20.98;100.00;101263.35;107545;1241;70803;-76
2023/08/18 00:39:29;;;;;;;11.40;8.10;;;;;;;20.97;100.00;101259.73;107484;1253;59156;-76
2023/08/18 00:41:58;;;;;;;10.20;7.30;;;;;;;20.97;100.00;101263.13;107595;1246;62390;-77
2023/08/18 00:44:27;;;;;;;9.20;7.50;;;;;;;20.95;100.00;101260.98;107569;1245;59081;-76
2023/08/18 00:46:56;;;;;;;10.90;7.80;;;;;;;20.96;100.00;101260.41;107426;1248;59077;-76
2023/08/18 00:49:25;;;;;;;11.10;8.20;;;;;;;21.04;100.00;101260.91;107585;1245;72653;-77
2023/08/18 00:51:56;;;;;;;10.10;8.00;;;;;;;21.09;100.00;101262.46;107533;1255;62668;-77
2023/08/18 00:54:27;;;;;;;10.10;8.40;;;;;;;21.18;100.00;101262.70;107525;1245;59713;-76
2023/08/18 00:56:57;;;;;;;9.50;7.60;;;;;;;21.21;100.00;101266.45;107291;1255;63027;-77
2023/08/18 00:59:25;;;;;;;12.20;8.90;;;;;;;21.17;100.00;101268.14;107428;1241;61845;-77
2023/08/18 01:01:56;;;;;;;24.40;18.50;;;;;;;21.14;100.00;101268.88;107443;1245;59065;-76
2023/08/18 01:04:25;;;;;;;10.40;9.10;;;;;;;21.03;100.00;101273.16;107449;1241;74306;-77
2023/08/18 01:06:54;;;;;;;12.40;10.20;;;;;;;20.95;100.00;101274.74;107289;1247;61009;-76
2023/08/18 01:09:24;;;;;;;15.50;9.90;;;;;;;20.87;100.00;101278.09;107484;1244;71086;-78
2023/08/18 01:12:33;;;;;;;12.00;8.30;;;;;;;20.86;100.00;101281.81;107365;1244;62715;-77
2023/08/18 01:15:27;;;;;;;12.40;8.30;;;;;;;20.70;100.00;101281.16;107512;1241;59110;-77
2023/08/18 01:18:01;;;;;;;13.80;9.40;;;;;;;20.68;100.00;101282.47;107490;1241;59016;-76
2023/08/18 01:20:31;;;;;;;15.10;8.30;;;;;;;20.72;100.00;101283.97;107279;1247;72731;-76
2023/08/18 01:23:02;;;;;;;10.30;7.80;;;;;;;20.67;100.00;101285.72;107250;1250;61817;-77
2023/08/18 01:25:31;;;;;;;10.80;8.10;;;;;;;20.60;100.00;101284.69;107385;1252;60348;-76
2023/08/18 01:28:02;;;;;;;12.70;8.90;;;;;;;20.42;100.00;101284.86;107235;1245;63077;-75
2023/08/18 01:30:51;;;;;;;12.50;9.70;;;;;;;20.29;100.00;101283.36;107254;1248;59080;-75
2023/08/18 01:33:38;;;;;;;13.50;8.90;;;;;;;20.54;100.00;101286.79;107457;1245;60446;-77
2023/08/18 01:36:13;;;;;;;11.80;8.90;;;;;;;20.56;100.00;101284.45;109504;1241;62485;-77
2023/08/18 01:38:44;;;;;;;13.70;9.90;;;;;;;20.47;100.00;101289.11;109632;1244;61407;-76
2023/08/18 01:41:21;;;;;;;11.20;8.80;;;;;;;20.35;100.00;101288.92;109636;1244;59799;-76
2023/08/18 01:43:51;;;;;;;15.30;9.10;;;;;;;20.21;100.00;101289.72;109627;1242;63244;-76
2023/08/18 01:46:20;;;;;;;12.20;8.60;;;;;;;20.13;100.00;101294.90;109490;1246;61942;-76
2023/08/18 01:48:48;;;;;;;12.80;8.60;;;;;;;20.10;100.00;101295.95;109729;1241;57759;-76
2023/08/18 01:51:17;;;;;;;13.70;9.70;;;;;;;19.96;100.00;101295.08;109679;1241;63315;-76
2023/08/18 01:53:46;;;;;;;17.00;9.00;;;;;;;19.85;100.00;101293.58;109707;1241;61525;-76
2023/08/18 01:56:15;;;;;;;14.90;9.80;;;;;;;19.80;100.00;101290.48;109711;1241;70329;-75
2023/08/18 01:58:43;;;;;;;15.50;10.10;;;;;;;20.00;100.00;101290.63;109725;1241;74178;-75
2023/08/18 02:01:12;;;;;;;17.00;10.00;;;;;;;20.08;100.00;101287.98;109659;1244;57684;-75
2023/08/18 02:03:41;;;;;;;11.90;9.60;;;;;;;20.23;100.00;101286.45;109533;1241;57613;-76
2023/08/18 02:06:10;;;;;;;12.60;9.20;;;;;;;20.41;100.00;101285.82;109670;1241;74139;-76
2023/08/18 02:08:38;;;;;;;13.40;8.70;;;;;;;20.45;100.00;101283.27;109780;1242;62732;-75
2023/08/18 02:11:07;;;;;;;9.80;7.80;;;;;;;20.42;100.00;101282.40;109568;1241;60254;-76
2023/08/18 02:13:36;;;;;;;11.20;8.10;;;;;;;20.29;100.00;101282.97;109656;1242;63377;-76
2023/08/18 02:16:05;;;;;;;10.00;8.50;;;;;;;20.13;100.00;101280.74;109510;1247;57773;-77
2023/08/18 02:18:34;;;;;;;11.80;8.30;;;;;;;20.09;100.00;101283.69;109668;1245;61097;-76
2023/08/18 02:21:02;;;;;;;13.10;9.40;;;;;;;20.07;100.00;101287.18;109685;1241;63325;-77
2023/08/18 02:23:31;;;;;;;11.70;9.20;;;;;;;20.03;100.00;101288.31;109682;1241;60659;-76
2023/08/18 02:26:02;;;;;;;9.90;8.50;;;;;;;20.02;100.00;101286.02;109761;1241;69170;-76
2023/08/18 02:28:33;;;;;;;;;;;;;;;20.05;100.00;101285.15;109679;1241;74382;-76
2023/08/18 02:31:04;;;;;;;15.80;9.30;;;;;;;20.11;100.00;101287.70;109652;1244;62322;-76
2023/08/18 02:33:34;;;;;;;14.90;8.90;;;;;;;20.12;100.00;101288.42;109492;1241;57173;-76
2023/08/18 02:36:04;;;;;;;13.80;9.30;;;;;;;20.09;100.00;101291.99;109517;1242;63688;-77
2023/08/18 02:38:35;;;;;;;14.90;9.30;;;;;;;19.95;100.00;101287.45;109753;1241;71930;-76
2023/08/18 02:41:04;;;;;;;13.80;9.60;;;;;;;19.81;100.00;101285.73;109431;1241;60324;-77
2023/08/18 02:43:33;;;;;;;16.10;10.00;;;;;;;19.76;100.00;101288.64;109578;1242;63113;-76
2023/08/18 02:46:02;;;;;;;13.00;9.60;;;;;;;19.81;100.00;101288.17;109580;1244;62718;-76
2023/08/18 02:48:31;;;;;;;14.00;10.30;;;;;;;19.91;100.00;101289.55;109492;1241;57679;-76
2023/08/18 02:51:05;;;;;;;13.60;10.10;;;;;;;20.03;100.00;101289.98;109616;1241;72153;-76
2023/08/18 02:53:37;;;;;;;14.60;10.40;;;;;;;20.11;100.00;101292.34;109521;1242;62067;-76
2023/08/18 02:56:06;;;;;;;13.50;9.70;;;;;;;20.25;100.00;101291.08;109714;1241;70452;-76
2023/08/18 02:58:36;;;;;;;15.40;10.20;;;;;;;20.27;100.00;101295.26;109726;1241;74121;-76
2023/08/18 03:01:07;;;;;;;17.90;9.70;;;;;;;20.23;100.00;101291.08;109713;1244;57194;-77
2023/08/18 03:03:36;;;;;;;16.60;10.90;;;;;;;20.17;100.00;101290.81;109643;1241;57121;-76
2023/08/18 03:06:07;;;;;;;13.20;9.70;;;;;;;20.18;100.00;101289.35;109611;1241;62716;-77
2023/08/18 03:08:38;;;;;;;12.70;8.80;;;;;;;20.15;100.00;101290.17;109586;1241;61666;-76
2023/08/18 03:11:08;;;;;;;12.60;9.20;;;;;;;20.04;100.00;101290.94;109621;1244;69836;-77
2023/08/18 03:13:37;;;;;;;18.30;9.80;;;;;;;20.02;100.00;101290.56;109497;1241;62730;-76
2023/08/18 03:16:06;;;;;;;16.50;9.00;;;;;;;20.03;100.00;101296.34;109544;1244;62175;-77
2023/08/18 03:18:35;;;;;;;21.00;9.70;;;;;;;19.98;100.00;101296.52;109680;1241;60760;-76
2023/08/18 03:21:03;;;;;;;20.00;10.10;;;;;;;19.87;100.00;101297.95;109538;1244;73183;-76
2023/08/18 03:23:33;;;;;;;15.50;10.30;;;;;;;19.73;100.00;101299.02;109526;1244;71858;-76
2023/08/18 03:26:03;;;;;;;14.90;9.50;;;;;;;19.77;100.00;101298.77;109565;1244;60627;-76
2023/08/18 03:28:38;;;;;;;14.60;9.40;;;;;;;19.88;100.00;101302.79;109579;1241;62271;-76
2023/08/18 03:31:07;;;;;;;17.30;10.20;;;;;;;20.02;100.00;101303.63;109680;1241;62844;-77
2023/08/18 03:33:36;;;;;;;17.00;9.80;;;;;;;20.10;100.00;101301.64;109548;1243;57246;-76
2023/08/18 03:36:09;;;;;;;17.20;10.50;;;;;;;20.16;100.00;101302.73;109552;1243;62898;-76
2023/08/18 03:38:38;;;;;;;14.80;11.20;;;;;;;20.25;100.00;101298.80;109544;1243;60734;-76
2023/08/18 03:41:07;;;;;;;15.90;9.90;;;;;;;20.32;100.00;101303.23;109579;1242;59223;-76
2023/08/18 03:43:36;;;;;;;19.10;10.30;;;;;;;20.32;100.00;101303.33;109472;1243;63169;-76
2023/08/18 03:46:22;;;;;;;13.10;10.20;;;;;;;20.40;100.00;101306.11;109494;1244;57144;-76
2023/08/18 03:48:55;;;;;;;13.90;9.40;;;;;;;20.35;100.00;101313.63;109511;1243;57666;-76
2023/08/18 03:51:24;;;;;;;12.90;9.70;;;;;;;20.26;100.00;101313.39;109551;1244;73098;-77
2023/08/18 03:53:53;;;;;;;14.90;9.70;;;;;;;20.22;100.00;101315.77;109501;1245;70958;-76
2023/08/18 03:56:21;;;;;;;12.30;9.60;;;;;;;20.24;100.00;101316.08;109511;1244;70293;-76
2023/08/18 03:58:50;;;;;;;12.90;9.90;;;;;;;20.27;100.00;101318.09;109612;1244;72861;-77
2023/08/18 04:01:19;;;;;;;14.70;9.40;;;;;;;20.29;100.00;101315.71;109384;1246;57656;-77
2023/08/18 04:03:49;;;;;;;14.50;10.00;;;;;;;20.27;100.00;101313.60;109604;1242;57620;-76
2023/08/18 04:06:18;;;;;;;19.20;12.50;;;;;;;20.37;100.00;101317.58;109465;1243;63205;-76
2023/08/18 04:08:47;;;;;;;16.20;11.00;;;;;;;20.48;100.00;101314.42;109443;1245;60884;-77
2023/08/18 04:11:16;;;;;;;30.80;13.20;;;;;;;20.67;100.00;101308.05;109326;1242;70917;-76
2023/08/18 04:13:45;;;;;;;17.00;10.60;;;;;;;20.77;100.00;101311.73;109343;1243;73814;-76
2023/08/18 04:16:13;;;;;;;18.60;11.30;;;;;;;20.84;100.00;101315.82;109239;1247;57166;-77
2023/08/18 04:18:42;;;;;;;18.20;10.80;;;;;;;20.93;100.00;101320.02;109368;1244;61055;-76
2023/08/18 04:21:11;;;;;;;17.80;11.50;;;;;;;20.90;100.00;101317.23;109338;1243;65018;-77
2023/08/18 04:23:40;;;;;;;19.80;10.90;;;;;;;20.82;100.00;101311.51;109328;1242;61427;-76
2023/08/18 04:26:12;;;;;;;21.70;12.70;;;;;;;20.76;100.00;101321.11;109403;1243;59006;-76
2023/08/18 04:28:41;;;;;;;18.10;11.30;;;;;;;20.70;100.00;101324.36;109374;1244;63077;-76
2023/08/18 04:31:11;;;;;;;16.10;10.00;;;;;;;20.71;100.00;101318.28;109330;1245;57671;-76
2023/08/18 04:34:10;;;;;;;16.00;10.70;;;;;;;20.74;100.00;101331.39;109614;1244;57795;-76
2023/08/18 04:36:39;;;;;;;15.20;10.80;;;;;;;20.68;100.00;101332.17;109608;1244;62076;-76
2023/08/18 04:39:08;;;;;;;16.80;10.40;;;;;;;20.62;100.00;101329.38;109478;1243;71282;-77
2023/08/18 04:41:38;;;;;;;20.40;11.80;;;;;;;20.73;100.00;101327.41;109513;1244;59431;-77
2023/08/18 04:44:08;;;;;;;21.50;10.70;;;;;;;20.94;100.00;101328.35;109489;1244;63055;-76
2023/08/18 04:46:37;;;;;;;19.00;10.60;;;;;;;21.09;100.00;101328.90;109523;1244;57449;-76
2023/08/18 04:49:12;;;;;;;21.90;11.00;;;;;;;21.20;100.00;101332.67;109598;1242;57605;-78
2023/08/18 04:51:41;;;;;;;14.00;10.50;;;;;;;21.16;100.00;101331.17;109414;1243;73925;-77
2023/08/18 04:54:11;;;;;;;17.80;9.90;;;;;;;21.10;100.00;101340.13;109511;1243;61281;-76
2023/08/18 04:56:42;;;;;;;22.60;9.90;;;;;;;21.01;100.00;101341.60;109538;1242;58990;-77
2023/08/18 04:59:11;;;;;;;16.80;10.10;;;;;;;20.97;100.00;101343.46;109642;1242;63127;-76
2023/08/18 05:01:40;;;;;;;14.90;10.60;;;;;;;20.87;100.00;101338.80;109497;1244;57664;-76
2023/08/18 05:04:09;;;;;;;16.90;11.40;;;;;;;20.92;100.00;101342.36;109502;1244;57617;-76
2023/08/18 05:06:38;;;;;;;16.80;11.10;;;;;;;21.05;100.00;101346.27;109499;1245;61930;-77
2023/08/18 05:09:07;;;;;;;15.60;10.70;;;;;;;21.23;100.00;101347.39;109622;1244;72009;-77
2023/08/18 05:11:35;;;;;;;15.90;10.50;;;;;;;21.35;100.00;101344.09;109502;1244;70411;-77
2023/08/18 05:14:05;;;;;;;16.80;10.30;;;;;;;21.46;100.00;101345.46;109520;1242;62979;-76
2023/08/18 05:16:34;;;;;;;23.20;10.10;;;;;;;21.60;100.00;101344.98;109889;1242;57702;-75
2023/08/18 05:19:03;;;;;;;20.60;10.80;;;;;;;21.69;100.00;101342.78;109804;1243;60806;-77
2023/08/18 05:21:31;;;;;;;18.10;10.90;;;;;;;21.84;100.00;101338.64;109594;1243;74463;-76
2023/08/18 05:24:00;;;;;;;17.80;10.70;;;;;;;21.92;100.00;101339.32;109415;1242;62149;-76
2023/08/18 05:26:29;;;;;;;16.10;10.80;;;;;;;22.06;100.00;101339.98;109615;1244;68982;-77
2023/08/18 05:28:58;;;;;;;17.00;11.10;;;;;;;22.16;100.00;101342.14;109611;1243;74098;-77
2023/08/18 05:31:27;;;;;;;19.40;11.00;;;;;;;22.37;100.00;101338.81;109568;1244;57783;-76
2023/08/18 05:33:56;;;;;;;18.50;10.40;;;;;;;22.54;100.00;101338.27;109550;1244;57666;-77
2023/08/18 05:36:25;;;;;;;14.50;10.70;;;;;;;22.72;100.00;101336.34;109558;1244;62816;-77
2023/08/18 05:38:54;;;;;;;15.10;9.90;;;;;;;22.88;100.00;101332.77;109634;1244;60663;-77
2023/08/18 05:41:24;;;;;;;17.60;10.20;;;;;;;23.05;100.00;101329.08;109646;1244;59835;-76
2023/08/18 05:43:52;;;;;;;15.70;10.80;;;;;;;23.25;100.00;101325.63;109651;1243;73773;-77
2023/08/18 05:46:21;;;;;;;17.00;10.70;;;;;;;23.40;100.00;101317.54;109628;1244;57696;-77
2023/08/18 05:48:50;;;;;;;20.40;9.80;;;;;;;23.61;100.00;101321.58;109631;1244;57885;-78
2023/08/18 05:51:19;;;;;;;15.90;9.00;;;;;;;23.77;100.00;101320.29;109606;1244;62998;-77
2023/08/18 05:53:48;;;;;;;13.90;9.40;;;;;;;23.89;100.00;101325.35;109626;1242;71333;-77
2023/08/18 05:56:17;;;;;;;11.30;8.80;;;;;;;24.02;100.00;101329.64;109629;1243;70766;-77
2023/08/18 05:58:46;;;;;;;22.30;9.80;;;;;;;24.04;100.00;101326.42;109635;1242;63541;-77
2023/08/18 06:01:15;;;;;;;14.90;9.60;;;;;;;24.10;100.00;101335.17;109614;1244;57757;-76
2023/08/18 06:03:44;;;;;;;13.70;9.10;;;;;;;24.17;100.00;101331.85;109662;1244;57174;-76
2023/08/18 06:06:13;;;;;;;14.30;9.80;;;;;;;24.21;100.00;101331.39;109619;1243;62729;-76
2023/08/18 06:08:42;;;;;;;15.30;9.10;;;;;;;24.30;100.00;101334.70;109510;1244;71961;-76
2023/08/18 06:11:11;;;;;;;18.80;8.80;;;;;;;24.42;100.00;101337.50;109517;1245;58874;-77
2023/08/18 06:13:40;;;;;;;15.30;9.00;;;;;;;24.56;100.00;101334.62;109475;1245;63060;-77
2023/08/18 06:16:09;;;;;;;15.10;8.00;;;;;;;24.69;100.00;101335.17;109553;1244;59595;-78
2023/08/18 06:18:37;;;;;;;14.20;8.70;;;;;;;24.88;100.00;101333.98;109634;1243;60159;-77
2023/08/18 06:21:06;;;;;;;15.10;8.10;;;;;;;24.93;100.00;101334.09;109669;1244;64170;-77
2023/08/18 06:23:36;;;;;;;10.40;8.50;;;;;;;25.00;100.00;101332.23;109660;1242;72093;-77
2023/08/18 06:26:05;;;;;;;12.00;8.80;;;;;;;25.12;99.97;101332.66;109461;1243;59896;-77
2023/08/18 06:28:34;;;;;;;18.30;9.00;;;;;;;25.23;99.51;101336.80;109477;1244;62556;-77
2023/08/18 06:31:07;;;;;;;11.40;8.30;;;;;;;25.29;98.86;101343.56;109437;1243;61168;-77
2023/08/18 06:33:36;;;;;;;12.50;8.20;;;;;;;25.50;98.96;101347.64;109454;1246;57776;-77
2023/08/18 06:36:05;;;;;;;12.50;7.60;;;;;;;25.74;97.02;101346.64;109616;1243;62900;-77
2023/08/18 06:38:34;;;;;;;13.30;8.20;;;;;;;25.85;95.20;101348.59;109582;1244;60618;-77
2023/08/18 06:41:03;;;;;;;17.60;7.60;;;;;;;25.96;95.73;101347.05;109594;1243;69393;-76
2023/08/18 06:43:32;;;;;;;11.50;8.00;;;;;;;25.89;92.50;101336.30;109468;1243;74297;-77
2023/08/18 06:46:00;;;;;;;12.50;7.20;;;;;;;26.08;93.41;101344.08;109560;1244;61421;-77
2023/08/18 06:48:29;;;;;;;10.60;6.50;;;;;;;26.14;91.21;101339.16;109502;1245;58129;-77
2023/08/18 06:50:58;;;;;;;12.70;7.70;;;;;;;26.30;90.97;101339.70;109481;1243;62012;-78
2023/08/18 06:53:27;;;;;;;10.10;6.90;;;;;;;26.53;90.50;101337.80;109599;1244;71496;-78
2023/08/18 06:55:56;;;;;;;12.10;7.00;;;;;;;26.72;88.52;101339.34;109550;1245;59610;-78
2023/08/18 06:58:31;;;;;;;11.60;7.40;;;;;;;26.83;87.78;101340.14;109521;1245;63193;-78
2023/08/18 07:01:00;;;;;;;12.50;7.60;;;;;;;26.91;85.54;101341.16;109488;1245;57446;-78
2023/08/18 07:03:29;;;;;;;10.90;7.60;;;;;;;27.01;84.56;101340.59;109610;1242;61038;-78
2023/08/18 07:05:58;;;;;;;13.00;7.20;;;;;;;27.13;84.01;101336.48;109507;1243;73114;-78
2023/08/18 07:08:27;;;;;;;13.40;6.70;;;;;;;27.31;83.76;101332.91;109614;1243;71965;-78
2023/08/18 07:10:55;;;;;;;10.90;6.90;;;;;;;27.48;83.20;101338.39;109548;1243;61039;-78
2023/08/18 07:13:24;;;;;;;13.00;6.50;;;;;;;27.67;84.39;101334.21;109589;1244;63044;-77
2023/08/18 07:15:53;;;;;;;11.40;7.00;;;;;;;27.72;80.71;101334.13;109448;1246;61703;-79
2023/08/18 07:18:22;;;;;;;8.20;6.70;;;;;;;27.80;80.85;101332.48;109666;1243;57625;-79
2023/08/18 07:20:52;;;;;;;12.80;7.20;;;;;;;27.90;80.67;101328.96;109449;1245;64910;-79
2023/08/18 07:23:21;;;;;;;9.70;6.50;;;;;;;27.92;79.51;101330.64;109635;1244;61341;-79
2023/08/18 07:25:50;;;;;;;10.20;6.40;;;;;;;28.06;78.95;101335.18;109689;1244;61757;-78
2023/08/18 07:28:18;;;;;;;11.60;6.90;;;;;;;28.25;78.69;101338.97;109676;1243;73897;-78
2023/08/18 07:30:47;;;;;;;10.80;6.80;;;;;;;28.28;77.24;101335.73;109660;1244;61420;-78
2023/08/18 07:33:16;;;;;;;13.50;6.50;;;;;;;28.30;76.76;101334.70;109658;1244;57257;-78
2023/08/18 07:35:46;;;;;;;9.60;6.40;;;;;;;28.22;77.45;101332.88;109562;1245;62167;-78
2023/08/18 07:38:15;;;;;;;11.50;6.60;;;;;;;28.37;76.42;101331.89;109655;1243;63288;-77
2023/08/18 07:40:44;;;;;;;7.10;5.50;;;;;;;28.47;75.80;101332.70;109620;1243;71284;-77
2023/08/18 07:43:14;;;;;;;12.90;6.70;;;;;;;28.63;75.58;101329.73;109368;1244;64604;-77
2023/08/18 07:45:42;;;;;;;14.20;7.10;;;;;;;28.58;75.05;101333.28;109445;1243;60737;-77
2023/08/18 07:48:12;;;;;;;8.80;6.20;;;;;;;28.76;75.00;101332.73;109532;1246;57250;-78
2023/08/18 07:50:41;;;;;;;11.20;6.80;;;;;;;28.91;74.19;101333.71;109669;1244;62702;-77
2023/08/18 07:53:10;;;;;;;10.10;6.30;;;;;;;29.02;73.11;101332.63;109330;1243;344641;-78
2023/08/18 07:55:39;;;;;;;8.00;6.00;;;;;;;29.40;73.54;101329.64;109613;1243;69745;-78
2023/08/18 07:58:07;;;;;;;12.00;6.60;;;;;;;29.62;71.60;101334.23;109504;1243;64333;-78
2023/08/18 08:00:36;;;;;;;12.30;6.50;;;;;;;29.60;69.86;101333.25;109605;1244;57682;-78
2023/08/18 08:03:05;;;;;;;12.30;6.40;;;;;;;29.62;68.95;101329.38;109533;1242;57395;-78
2023/08/18 08:05:34;;;;;;;9.10;5.70;;;;;;;29.64;68.62;101326.88;109517;1243;63905;-78
2023/08/18 08:08:03;;;;;;;13.70;5.80;;;;;;;29.63;69.08;101328.46;109635;1244;61199;-78
2023/08/18 08:10:32;;;;;;;12.10;5.30;;;;;;;29.80;68.49;101326.39;109519;1244;59022;-78
2023/08/18 08:13:01;;;;;;;13.40;5.40;;;;;;;29.83;67.89;101324.54;109605;1244;62253;-79
2023/08/18 08:15:30;;;;;;;14.10;5.10;;;;;;;29.96;67.27;101324.02;109609;1244;57666;-78
2023/08/18 08:18:03;;;;;;;6.30;5.40;;;;;;;30.14;68.02;101324.58;109550;1245;60974;-78
2023/08/18 08:20:32;;;;;;;12.60;5.50;;;;;;;30.29;67.60;101324.14;109563;1244;62599;-78
2023/08/18 08:23:00;;;;;;;10.70;5.30;;;;;;;29.90;66.79;101322.38;109655;1243;72624;-78
2023/08/18 08:25:29;;;;;;;8.10;5.20;;;;;;;29.85;67.22;101323.30;109664;1243;59362;-79
2023/08/18 08:27:58;;;;;;;10.90;5.20;;;;;;;30.22;67.21;101325.15;109639;1243;63049;-78
2023/08/18 08:30:28;;;;;;;8.00;5.70;;;;;;;30.56;66.15;101328.05;109645;1244;57128;-78
2023/08/18 08:33:00;;;;;;;6.90;5.50;;;;;;;30.54;64.48;101328.77;109628;1243;59197;-78
2023/08/18 08:35:29;;;;;;;8.30;4.90;;;;;;;30.71;64.29;101325.78;109466;1244;73909;-78
2023/08/18 08:37:57;;;;;;;5.40;4.80;;;;;;;30.71;63.56;101321.20;109631;1243;64247;-78
2023/08/18 08:40:26;;;;;;;8.60;5.00;;;;;;;30.76;63.32;101318.27;109518;1243;59514;-78
2023/08/18 08:42:56;;;;;;;8.60;5.30;;;;;;;30.87;62.62;101321.96;109608;1243;63252;-78
2023/08/18 08:45:28;;;;;;;8.60;5.50;;;;;;;30.88;61.51;101321.38;109505;1244;60133;-78
2023/08/18 08:48:00;;;;;;;7.90;5.40;;;;;;;30.99;61.27;101320.63;109613;1242;61313;-78
2023/08/18 08:50:29;;;;;;;;;;;;;;;31.09;61.22;101321.75;109504;1245;73064;-78
2023/08/18 08:53:01;;;;;;;7.60;5.00;;;;;;;31.42;60.17;101316.84;109516;1243;72428;-77
2023/08/18 08:55:36;;;;;;;8.10;6.00;;;;;;;31.59;60.66;101321.14;109422;1243;60404;-78
2023/08/18 08:58:05;;;;;;;13.80;5.40;;;;;;;31.65;59.18;101320.03;109472;1245;74363;-78
2023/08/18 09:00:34;;;;;;;10.10;5.70;;;;;;;31.61;58.57;101319.99;109367;1245;57124;-79
2023/08/18 09:03:06;;;;;;;8.10;6.00;;;;;;;31.39;59.22;101314.23;109275;1242;57712;-78
2023/08/18 09:05:35;;;;;;;6.70;5.30;;;;;;;31.18;60.00;101320.52;109356;1242;72592;-78
2023/08/18 09:08:04;;;;;;;11.50;5.70;;;;;;;31.11;60.86;101323.42;109357;1243;61945;-78
2023/08/18 09:10:38;;;;;;;10.40;5.80;;;;;;;31.45;60.37;101317.83;109417;1243;59879;-78
2023/08/18 09:13:09;;;;;;;7.40;5.50;;;;;;;31.50;59.96;101312.13;109252;1244;73004;-78
2023/08/18 09:15:40;;;;;;;18.40;6.00;;;;;;;31.76;58.73;101312.40;109490;1245;61531;-78
2023/08/18 09:18:11;;;;;;;;;;;;;;;31.88;58.83;101312.77;109530;1243;57456;-78
2023/08/18 09:20:43;;;;;;;7.40;5.60;;;;;;;32.31;58.59;101310.20;109510;1242;73457;-78
2023/08/18 09:23:11;;;;;;;8.90;5.40;;;;;;;32.38;57.35;101313.05;109451;1243;71761;-78
2023/08/18 09:25:40;;;;;;;10.20;5.90;;;;;;;32.24;57.18;101310.59;109483;1243;60275;-78
2023/08/18 09:28:09;;;;;;;7.90;5.40;;;;;;;32.04;57.27;101306.55;109491;1244;63049;-77
2023/08/18 09:30:42;;;;;;;10.60;6.30;;;;;;;31.54;58.54;101306.86;109490;1244;57713;-78
2023/08/18 09:33:11;;;;;;;11.20;5.80;;;;;;;31.78;58.66;101305.30;109640;1244;57701;-78
2023/08/18 09:35:40;;;;;;;11.20;5.70;;;;;;;32.22;58.13;101303.81;109536;1244;62063;-77
2023/08/18 09:38:17;;;;;;;7.60;5.30;;;;;;;32.63;56.58;101303.45;109512;1243;61613;-78
2023/08/18 09:40:55;;;;;;;10.20;5.90;;;;;;;31.92;56.66;101299.91;109495;1242;70388;-78
2023/08/18 09:43:24;;;;;;;16.30;6.00;;;;;;;31.83;57.34;101306.07;109229;1245;74157;-78
2023/08/18 09:45:57;;;;;;;5.90;5.30;;;;;;;31.64;57.95;101301.48;109442;1244;57707;-78
2023/08/18 09:48:27;;;;;;;9.00;5.40;;;;;;;31.59;57.78;101301.73;109362;1243;57701;-78
2023/08/18 09:50:58;;;;;;;6.50;5.70;;;;;;;31.94;57.17;101297.59;109276;1244;72713;-77
2023/08/18 09:53:31;;;;;;;7.30;5.30;;;;;;;32.62;55.31;101299.58;109268;1244;63292;-77
2023/08/18 09:56:11;;;;;;;9.80;6.00;;;;;;;32.91;53.87;101295.30;109360;1245;70925;-78
2023/08/18 09:59:42;;;;;;;10.30;5.40;;;;;;;32.99;54.10;101293.48;109535;1243;62777;-79
2023/08/18 10:02:19;;;;;;;8.80;5.30;;;;;;;33.05;53.79;101294.69;109368;1244;61800;-76
2023/08/18 10:04:49;;;;;;;6.80;5.30;;;;;;;33.27;52.49;101287.71;109345;1243;61558;-77
2023/08/18 10:07:18;;;;;;;6.70;5.20;;;;;;;33.73;52.03;101290.71;109312;1243;72962;-78
2023/08/18 10:09:47;;;;;;;8.90;5.50;;;;;;;33.72;51.25;101289.52;109250;1243;63766;-78
2023/08/18 10:12:16;;;;;;;16.00;5.40;;;;;;;33.82;51.20;101288.89;109344;1242;60181;-78
2023/08/18 10:14:45;;;;;;;7.90;4.90;;;;;;;33.74;50.00;101288.52;109403;1243;74111;-78
2023/08/18 10:17:15;;;;;;;7.80;5.00;;;;;;;33.61;49.64;101285.34;109408;1244;57622;-78
2023/08/18 10:19:52;;;;;;;7.40;4.50;;;;;;;33.72;49.47;101289.34;109353;1243;57224;-79
2023/08/18 10:22:25;;;;;;;7.00;4.50;;;;;;;34.34;49.51;101283.12;109477;1242;73465;-77
2023/08/18 10:24:55;;;;;;;6.00;4.80;;;;;;;34.97;48.49;101289.05;109363;1243;72717;-77
2023/08/18 10:27:27;;;;;;;12.50;4.90;;;;;;;34.86;46.72;101288.52;109468;1244;69187;-78
2023/08/18 10:30:08;;;;;;;8.40;5.10;;;;;;;34.31;46.96;101287.64;109420;1244;64459;-78
2023/08/18 10:32:37;;;;;;;6.20;4.60;;;;;;;33.98;47.55;101287.64;109341;1244;57167;-78
2023/08/18 10:35:20;;;;;;;6.50;4.50;;;;;;;34.25;47.33;101280.74;109386;1243;57500;-78
2023/08/18 10:37:58;;;;;;;8.30;5.10;;;;;;;34.73;46.80;101278.35;109355;1243;73572;-77
2023/08/18 10:40:37;;;;;;;11.30;5.30;;;;;;;34.46;47.27;101278.05;109351;1243;71354;-77
2023/08/18 10:43:14;;;;;;;8.20;5.60;;;;;;;34.93;46.26;101278.77;109369;1243;61658;-77
2023/08/18 10:45:50;;;;;;;9.10;5.30;;;;;;;34.71;45.50;101278.94;109536;1243;63329;-78
2023/08/18 10:48:19;;;;;;;6.90;5.30;;;;;;;34.67;45.55;101282.70;109490;1244;57601;-77
2023/08/18 10:50:48;;;;;;;6.90;4.90;;;;;;;35.23;44.60;101276.89;109646;1243;61800;-78
2023/08/18 10:53:17;;;;;;;6.10;4.30;;;;;;;35.96;43.19;101277.78;109517;1243;65208;-77
2023/08/18 10:55:45;;;;;;;6.20;4.30;;;;;;;36.61;42.69;101281.64;109570;1242;72532;-77
2023/08/18 10:58:15;;;;;;;8.70;4.70;;;;;;;35.81;42.81;101279.81;109677;1243;59715;-78
2023/08/18 11:00:45;;;;;;;8.80;4.80;;;;;;;36.41;42.33;101278.13;109471;1244;73773;-79
2023/08/18 11:03:15;;;;;;;9.30;4.90;;;;;;;36.31;43.79;101277.66;109531;1245;61448;-77
2023/08/18 11:05:45;;;;;;;8.50;4.70;;;;;;;36.66;43.23;101283.13;109629;1244;57149;-78
2023/08/18 11:08:14;;;;;;;6.10;4.50;;;;;;;36.94;41.95;101279.98;109459;1243;64326;-77
2023/08/18 11:10:43;;;;;;;6.50;4.60;;;;;;;37.13;42.11;101275.72;109594;1243;73010;-77
2023/08/18 11:13:28;;;;;;;9.10;5.00;;;;;;;36.85;42.25;101277.80;109629;1242;70922;-79
2023/08/18 11:15:58;;;;;;;9.30;4.70;;;;;;;36.68;41.62;101269.34;109499;1242;74773;-77
2023/08/18 11:18:27;;;;;;;7.60;4.70;;;;;;;36.23;41.13;101267.60;109595;1244;62800;-78
2023/08/18 11:20:58;;;;;;;5.60;4.10;;;;;;;35.67;41.71;101267.58;109548;1243;60965;-78
2023/08/18 11:23:27;;;;;;;8.30;4.70;;;;;;;36.08;40.94;101264.71;109631;1243;73064;-77